sensor_id;sensor_type;location;lat;lon;timestamp;temperature;humidity
9403;DHT22;4741;49.834;10.740;2022-11-15T00:01:56;6.30;99.90
9403;DHT22;4741;49.834;10.740;2022-11-15T00:04:23;5.50;99.90
9403;DHT22;4741;49.834;10.740;2022-11-15T00:06:50;5.60;99.90
9403;DHT22;4741;49.834;10.740;2022-11-15T00:09:17;5.90;99.90
9403;DHT22;4741;49.834;10.740;2022-11-15T00:11:43;6.10;99.90
9403;DHT22;4741;49.834;10.740;2022-11-15T00:14:10;4.60;99.90
9403;DHT22;4741;49.834;10.740;2022-11-15T00:16:37;4.60;99.90
9403;DHT22;4741;49.834;10.740;2022-11-15T00:19:03;4.70;99.90
9403;DHT22;4741;49.834;10.740;2022-11-15T00:21:30;4.70;99.90
9403;DHT22;4741;49.834;10.740;2022-11-15T00:23:57;4.50;99.90
9403;DHT22;4741;49.834;10.740;2022-11-15T00:26:24;4.50;99.90
9403;DHT22;4741;49.834;10.740;2022-11-15T00:28:51;4.50;99.90
9403;DHT22;4741;49.834;10.740;2022-11-15T00:31:18;4.40;99.90
9403;DHT22;4741;49.834;10.740;2022-11-15T00:33:45;4.10;99.90
9403;DHT22;4741;49.834;10.740;2022-11-15T00:36:12;4.10;99.90
9403;DHT22;4741;49.834;10.740;2022-11-15T00:38:39;4.10;99.90
9403;DHT22;4741;49.834;10.740;2022-11-15T00:41:06;4.10;99.90
9403;DHT22;4741;49.834;10.740;2022-11-15T00:43:35;4.00;99.90
9403;DHT22;4741;49.834;10.740;2022-11-15T00:46:02;4.00;99.90
9403;DHT22;4741;49.834;10.740;2022-11-15T00:48:29;4.00;99.90
9403;DHT22;4741;49.834;10.740;2022-11-15T00:50:55;4.00;99.90
9403;DHT22;4741;49.834;10.740;2022-11-15T00:53:22;4.00;99.90
9403;DHT22;4741;49.834;10.740;2022-11-15T00:55:49;4.00;99.90
9403;DHT22;4741;49.834;10.740;2022-11-15T00:58:15;3.90;99.90
9403;DHT22;4741;49.834;10.740;2022-11-15T01:00:44;3.90;99.90
9403;DHT22;4741;49.834;10.740;2022-11-15T01:03:10;4.00;99.90
9403;DHT22;4741;49.834;10.740;2022-11-15T01:05:37;4.00;99.90
9403;DHT22;4741;49.834;10.740;2022-11-15T01:08:04;4.00;99.90
9403;DHT22;4741;49.834;10.740;2022-11-15T01:10:31;3.90;99.90
9403;DHT22;4741;49.834;10.740;2022-11-15T01:12:57;3.80;99.90
9403;DHT22;4741;49.834;10.740;2022-11-15T01:15:24;3.80;99.90
9403;DHT22;4741;49.834;10.740;2022-11-15T01:17:50;3.60;99.90
9403;DHT22;4741;49.834;10.740;2022-11-15T01:20:17;3.50;99.90
9403;DHT22;4741;49.834;10.740;2022-11-15T01:22:45;3.60;99.90
9403;DHT22;4741;49.834;10.740;2022-11-15T01:25:11;3.50;99.90
9403;DHT22;4741;49.834;10.740;2022-11-15T01:27:38;3.70;99.90
9403;DHT22;4741;49.834;10.740;2022-11-15T01:30:05;3.70;99.90
9403;DHT22;4741;49.834;10.740;2022-11-15T01:32:32;3.70;99.90
9403;DHT22;4741;49.834;10.740;2022-11-15T01:34:58;3.70;99.90
9403;DHT22;4741;49.834;10.740;2022-11-15T01:37:25;3.90;99.90
9403;DHT22;4741;49.834;10.740;2022-11-15T01:39:53;3.70;99.90
9403;DHT22;4741;49.834;10.740;2022-11-15T01:42:19;3.80;99.90
9403;DHT22;4741;49.834;10.740;2022-11-15T01:49:41;4.00;99.90
9403;DHT22;4741;49.834;10.740;2022-11-15T01:52:13;3.90;99.90
9403;DHT22;4741;49.834;10.740;2022-11-15T01:54:41;4.10;99.90
9403;DHT22;4741;49.834;10.740;2022-11-15T01:57:09;4.00;99.90
9403;DHT22;4741;49.834;10.740;2022-11-15T01:59:37;4.00;99.90
9403;DHT22;4741;49.834;10.740;2022-11-15T02:02:06;4.10;99.90
9403;DHT22;4741;49.834;10.740;2022-11-15T02:04:35;4.10;99.90
9403;DHT22;4741;49.834;10.740;2022-11-15T02:07:04;4.10;99.90
9403;DHT22;4741;49.834;10.740;2022-11-15T02:09:31;4.40;99.90
9403;DHT22;4741;49.834;10.740;2022-11-15T02:11:58;4.40;99.90
9403;DHT22;4741;49.834;10.740;2022-11-15T02:14:27;4.30;99.90
9403;DHT22;4741;49.834;10.740;2022-11-15T02:20:24;4.30;99.90
9403;DHT22;4741;49.834;10.740;2022-11-15T02:29:10;4.50;99.90
9403;DHT22;4741;49.834;10.740;2022-11-15T02:34:17;4.60;99.90
9403;DHT22;4741;49.834;10.740;2022-11-15T02:39:41;4.70;99.90
9403;DHT22;4741;49.834;10.740;2022-11-15T02:45:09;4.70;99.90
9403;DHT22;4741;49.834;10.740;2022-11-15T02:47:39;4.70;99.90
9403;DHT22;4741;49.834;10.740;2022-11-15T02:50:10;4.80;99.90
9403;DHT22;4741;49.834;10.740;2022-11-15T02:52:37;5.10;99.90
9403;DHT22;4741;49.834;10.740;2022-11-15T02:55:03;5.10;99.90
9403;DHT22;4741;49.834;10.740;2022-11-15T03:08:13;5.30;99.90
9403;DHT22;4741;49.834;10.740;2022-11-15T03:10:43;5.40;99.90
9403;DHT22;4741;49.834;10.740;2022-11-15T03:15:51;5.20;99.90
9403;DHT22;4741;49.834;10.740;2022-11-15T03:18:21;5.20;99.90
9403;DHT22;4741;49.834;10.740;2022-11-15T03:20:48;5.20;99.90
9403;DHT22;4741;49.834;10.740;2022-11-15T03:23:16;5.40;99.90
9403;DHT22;4741;49.834;10.740;2022-11-15T03:25:44;5.60;99.90
9403;DHT22;4741;49.834;10.740;2022-11-15T03:28:14;5.60;99.90
9403;DHT22;4741;49.834;10.740;2022-11-15T03:30:42;5.70;99.90
9403;DHT22;4741;49.834;10.740;2022-11-15T03:33:10;5.70;99.90
9403;DHT22;4741;49.834;10.740;2022-11-15T03:35:37;5.80;99.90
9403;DHT22;4741;49.834;10.740;2022-11-15T03:38:17;5.80;99.90
9403;DHT22;4741;49.834;10.740;2022-11-15T03:40:58;5.80;99.90
9403;DHT22;4741;49.834;10.740;2022-11-15T03:43:46;6.00;99.90
9403;DHT22;4741;49.834;10.740;2022-11-15T03:46:15;6.10;99.90
9403;DHT22;4741;49.834;10.740;2022-11-15T03:48:43;6.40;99.90
9403;DHT22;4741;49.834;10.740;2022-11-15T03:51:11;6.40;99.90
9403;DHT22;4741;49.834;10.740;2022-11-15T03:53:38;6.50;99.90
9403;DHT22;4741;49.834;10.740;2022-11-15T03:56:04;5.60;99.90
9403;DHT22;4741;49.834;10.740;2022-11-15T03:58:31;6.70;99.90
9403;DHT22;4741;49.834;10.740;2022-11-15T04:00:58;5.60;99.90
9403;DHT22;4741;49.834;10.740;2022-11-15T04:03:25;5.10;99.90
9403;DHT22;4741;49.834;10.740;2022-11-15T04:05:52;5.40;99.90
9403;DHT22;4741;49.834;10.740;2022-11-15T04:08:19;5.50;99.90
9403;DHT22;4741;49.834;10.740;2022-11-15T04:10:48;7.00;99.90
9403;DHT22;4741;49.834;10.740;2022-11-15T04:13:14;5.50;99.90
9403;DHT22;4741;49.834;10.740;2022-11-15T04:15:41;5.00;99.90
9403;DHT22;4741;49.834;10.740;2022-11-15T04:18:08;5.20;99.90
9403;DHT22;4741;49.834;10.740;2022-11-15T04:20:34;5.40;99.90
9403;DHT22;4741;49.834;10.740;2022-11-15T04:23:21;5.40;99.90
9403;DHT22;4741;49.834;10.740;2022-11-15T04:26:07;5.50;99.90
9403;DHT22;4741;49.834;10.740;2022-11-15T04:28:36;5.40;99.90
9403;DHT22;4741;49.834;10.740;2022-11-15T04:31:23;5.40;99.90
9403;DHT22;4741;49.834;10.740;2022-11-15T04:33:49;5.30;99.90
9403;DHT22;4741;49.834;10.740;2022-11-15T04:36:16;5.30;99.90
9403;DHT22;4741;49.834;10.740;2022-11-15T04:39:01;5.20;99.90
9403;DHT22;4741;49.834;10.740;2022-11-15T04:41:28;5.10;99.90
9403;DHT22;4741;49.834;10.740;2022-11-15T04:43:55;5.00;99.90
9403;DHT22;4741;49.834;10.740;2022-11-15T04:46:22;5.00;99.90
9403;DHT22;4741;49.834;10.740;2022-11-15T04:48:50;4.90;99.90
9403;DHT22;4741;49.834;10.740;2022-11-15T04:51:23;4.80;99.90
9403;DHT22;4741;49.834;10.740;2022-11-15T04:53:50;4.80;99.90
9403;DHT22;4741;49.834;10.740;2022-11-15T04:56:17;4.70;99.90
9403;DHT22;4741;49.834;10.740;2022-11-15T04:58:43;4.70;99.90
9403;DHT22;4741;49.834;10.740;2022-11-15T05:01:11;4.60;99.90
9403;DHT22;4741;49.834;10.740;2022-11-15T05:03:38;4.60;99.90
9403;DHT22;4741;49.834;10.740;2022-11-15T05:06:23;4.50;99.90
9403;DHT22;4741;49.834;10.740;2022-11-15T05:08:50;4.40;99.90
9403;DHT22;4741;49.834;10.740;2022-11-15T05:11:17;4.40;99.90
9403;DHT22;4741;49.834;10.740;2022-11-15T05:13:44;4.40;99.90
9403;DHT22;4741;49.834;10.740;2022-11-15T05:16:10;4.30;99.90
9403;DHT22;4741;49.834;10.740;2022-11-15T05:18:37;4.30;99.90
9403;DHT22;4741;49.834;10.740;2022-11-15T05:21:08;4.30;99.90
9403;DHT22;4741;49.834;10.740;2022-11-15T05:23:35;4.20;99.90
9403;DHT22;4741;49.834;10.740;2022-11-15T05:26:02;4.10;99.90
9403;DHT22;4741;49.834;10.740;2022-11-15T05:28:34;4.10;99.90
9403;DHT22;4741;49.834;10.740;2022-11-15T05:33:29;4.00;99.90
9403;DHT22;4741;49.834;10.740;2022-11-15T05:38:29;3.80;99.90
9403;DHT22;4741;49.834;10.740;2022-11-15T05:40:56;3.80;99.90
9403;DHT22;4741;49.834;10.740;2022-11-15T05:43:23;3.70;99.90
9403;DHT22;4741;49.834;10.740;2022-11-15T05:45:50;3.80;99.90
9403;DHT22;4741;49.834;10.740;2022-11-15T05:48:16;3.80;99.90
9403;DHT22;4741;49.834;10.740;2022-11-15T05:50:44;3.70;99.90
9403;DHT22;4741;49.834;10.740;2022-11-15T05:53:12;3.70;99.90
9403;DHT22;4741;49.834;10.740;2022-11-15T05:55:41;3.60;99.90
9403;DHT22;4741;49.834;10.740;2022-11-15T05:58:07;3.60;99.90
9403;DHT22;4741;49.834;10.740;2022-11-15T06:00:34;3.40;99.90
9403;DHT22;4741;49.834;10.740;2022-11-15T06:03:01;3.30;99.90
9403;DHT22;4741;49.834;10.740;2022-11-15T06:05:27;3.30;99.90
9403;DHT22;4741;49.834;10.740;2022-11-15T06:07:57;3.20;99.90
9403;DHT22;4741;49.834;10.740;2022-11-15T06:10:23;3.20;99.90
9403;DHT22;4741;49.834;10.740;2022-11-15T06:13:00;3.20;99.90
9403;DHT22;4741;49.834;10.740;2022-11-15T06:15:27;3.20;99.90
9403;DHT22;4741;49.834;10.740;2022-11-15T06:17:56;3.10;99.90
9403;DHT22;4741;49.834;10.740;2022-11-15T06:20:27;3.10;99.90
9403;DHT22;4741;49.834;10.740;2022-11-15T06:22:57;3.00;99.90
9403;DHT22;4741;49.834;10.740;2022-11-15T06:25:25;3.10;99.90
9403;DHT22;4741;49.834;10.740;2022-11-15T06:27:52;3.10;99.90
9403;DHT22;4741;49.834;10.740;2022-11-15T06:30:19;3.10;99.90
9403;DHT22;4741;49.834;10.740;2022-11-15T06:32:46;3.00;99.90
9403;DHT22;4741;49.834;10.740;2022-11-15T06:35:13;3.10;99.90
9403;DHT22;4741;49.834;10.740;2022-11-15T06:37:40;3.20;99.90
9403;DHT22;4741;49.834;10.740;2022-11-15T06:40:07;3.20;99.90
9403;DHT22;4741;49.834;10.740;2022-11-15T06:42:34;3.20;99.90
9403;DHT22;4741;49.834;10.740;2022-11-15T06:45:01;3.20;99.90
9403;DHT22;4741;49.834;10.740;2022-11-15T06:47:27;3.30;99.90
9403;DHT22;4741;49.834;10.740;2022-11-15T06:49:54;3.30;99.90
9403;DHT22;4741;49.834;10.740;2022-11-15T06:52:20;3.30;99.90
9403;DHT22;4741;49.834;10.740;2022-11-15T06:54:48;3.20;99.90
9403;DHT22;4741;49.834;10.740;2022-11-15T06:57:14;3.10;99.90
9403;DHT22;4741;49.834;10.740;2022-11-15T06:59:41;3.20;99.90
9403;DHT22;4741;49.834;10.740;2022-11-15T07:02:13;3.10;99.90
9403;DHT22;4741;49.834;10.740;2022-11-15T07:04:40;3.20;99.90
9403;DHT22;4741;49.834;10.740;2022-11-15T07:07:07;3.20;99.90
9403;DHT22;4741;49.834;10.740;2022-11-15T07:09:33;3.30;99.90
9403;DHT22;4741;49.834;10.740;2022-11-15T07:12:00;3.50;99.90
9403;DHT22;4741;49.834;10.740;2022-11-15T07:14:33;3.30;99.90
9403;DHT22;4741;49.834;10.740;2022-11-15T07:17:02;3.30;99.90
9403;DHT22;4741;49.834;10.740;2022-11-15T07:19:29;3.20;99.90
9403;DHT22;4741;49.834;10.740;2022-11-15T07:21:56;3.10;99.90
9403;DHT22;4741;49.834;10.740;2022-11-15T07:24:22;3.10;99.90
9403;DHT22;4741;49.834;10.740;2022-11-15T07:26:49;3.10;99.90
9403;DHT22;4741;49.834;10.740;2022-11-15T07:29:16;3.20;99.90
9403;DHT22;4741;49.834;10.740;2022-11-15T07:31:42;3.40;99.90
9403;DHT22;4741;49.834;10.740;2022-11-15T07:34:09;3.60;99.90
9403;DHT22;4741;49.834;10.740;2022-11-15T07:36:36;3.60;99.90
9403;DHT22;4741;49.834;10.740;2022-11-15T07:39:03;3.80;99.90
9403;DHT22;4741;49.834;10.740;2022-11-15T07:41:29;3.90;99.90
9403;DHT22;4741;49.834;10.740;2022-11-15T07:43:56;3.80;99.90
9403;DHT22;4741;49.834;10.740;2022-11-15T07:46:23;3.90;99.90
9403;DHT22;4741;49.834;10.740;2022-11-15T07:48:55;4.10;99.90
9403;DHT22;4741;49.834;10.740;2022-11-15T07:51:34;4.00;99.90
9403;DHT22;4741;49.834;10.740;2022-11-15T07:54:39;4.10;99.90
9403;DHT22;4741;49.834;10.740;2022-11-15T07:57:12;4.30;99.90
9403;DHT22;4741;49.834;10.740;2022-11-15T08:00:09;4.50;99.90
9403;DHT22;4741;49.834;10.740;2022-11-15T08:03:16;4.80;99.90
9403;DHT22;4741;49.834;10.740;2022-11-15T08:13:08;5.30;99.90
9403;DHT22;4741;49.834;10.740;2022-11-15T08:16:15;5.50;99.90
9403;DHT22;4741;49.834;10.740;2022-11-15T08:19:08;5.60;99.90
9403;DHT22;4741;49.834;10.740;2022-11-15T08:22:01;5.70;99.90
9403;DHT22;4741;49.834;10.740;2022-11-15T08:25:11;5.80;99.90
9403;DHT22;4741;49.834;10.740;2022-11-15T08:28:12;5.80;99.90
9403;DHT22;4741;49.834;10.740;2022-11-15T08:30:59;5.90;99.90
9403;DHT22;4741;49.834;10.740;2022-11-15T08:35:57;6.60;99.90
9403;DHT22;4741;49.834;10.740;2022-11-15T08:38:24;6.80;99.90
9403;DHT22;4741;49.834;10.740;2022-11-15T08:40:51;6.90;99.90
9403;DHT22;4741;49.834;10.740;2022-11-15T08:43:18;7.00;99.90
9403;DHT22;4741;49.834;10.740;2022-11-15T08:45:45;7.20;99.90
9403;DHT22;4741;49.834;10.740;2022-11-15T08:48:14;8.30;99.90
9403;DHT22;4741;49.834;10.740;2022-11-15T08:50:53;7.50;99.90
9403;DHT22;4741;49.834;10.740;2022-11-15T08:53:19;7.90;99.90
9403;DHT22;4741;49.834;10.740;2022-11-15T08:55:46;7.90;99.90
9403;DHT22;4741;49.834;10.740;2022-11-15T09:00:39;8.30;99.90
9403;DHT22;4741;49.834;10.740;2022-11-15T09:08:00;9.10;99.90
9403;DHT22;4741;49.834;10.740;2022-11-15T09:10:39;9.20;99.90
9403;DHT22;4741;49.834;10.740;2022-11-15T09:13:05;9.30;99.90
9403;DHT22;4741;49.834;10.740;2022-11-15T09:15:32;9.40;99.90
9403;DHT22;4741;49.834;10.740;2022-11-15T09:17:59;9.60;99.90
9403;DHT22;4741;49.834;10.740;2022-11-15T09:40:02;11.10;99.90
9403;DHT22;4741;49.834;10.740;2022-11-15T09:42:39;11.00;99.90
9403;DHT22;4741;49.834;10.740;2022-11-15T09:45:22;11.40;99.90
9403;DHT22;4741;49.834;10.740;2022-11-15T09:50:35;11.60;99.90
9403;DHT22;4741;49.834;10.740;2022-11-15T09:55:39;11.50;99.90
9403;DHT22;4741;49.834;10.740;2022-11-15T09:58:10;11.40;99.90
9403;DHT22;4741;49.834;10.740;2022-11-15T10:00:49;11.50;99.90
9403;DHT22;4741;49.834;10.740;2022-11-15T10:05:53;12.50;99.90
9403;DHT22;4741;49.834;10.740;2022-11-15T10:08:30;12.60;99.90
9403;DHT22;4741;49.834;10.740;2022-11-15T10:10:59;12.70;99.90
9403;DHT22;4741;49.834;10.740;2022-11-15T10:13:47;12.50;99.90
9403;DHT22;4741;49.834;10.740;2022-11-15T10:16:23;12.40;99.90
9403;DHT22;4741;49.834;10.740;2022-11-15T10:18:56;12.60;99.90
9403;DHT22;4741;49.834;10.740;2022-11-15T10:21:29;13.00;99.90
9403;DHT22;4741;49.834;10.740;2022-11-15T10:23:59;11.80;99.90
9403;DHT22;4741;49.834;10.740;2022-11-15T10:26:25;12.30;99.90
9403;DHT22;4741;49.834;10.740;2022-11-15T10:28:52;12.20;99.90
9403;DHT22;4741;49.834;10.740;2022-11-15T10:31:26;12.30;99.90
9403;DHT22;4741;49.834;10.740;2022-11-15T10:34:10;12.50;99.90
9403;DHT22;4741;49.834;10.740;2022-11-15T10:36:38;12.30;99.90
9403;DHT22;4741;49.834;10.740;2022-11-15T10:39:04;12.70;99.90
9403;DHT22;4741;49.834;10.740;2022-11-15T10:41:32;13.30;99.90
9403;DHT22;4741;49.834;10.740;2022-11-15T10:46:27;13.00;99.90
9403;DHT22;4741;49.834;10.740;2022-11-15T10:51:49;13.90;99.90
9403;DHT22;4741;49.834;10.740;2022-11-15T10:54:23;14.00;99.90
9403;DHT22;4741;49.834;10.740;2022-11-15T10:56:51;13.50;99.90
9403;DHT22;4741;49.834;10.740;2022-11-15T10:59:54;13.80;99.90
9403;DHT22;4741;49.834;10.740;2022-11-15T11:02:27;13.70;99.90
9403;DHT22;4741;49.834;10.740;2022-11-15T11:04:56;13.50;99.90
9403;DHT22;4741;49.834;10.740;2022-11-15T11:07:30;14.00;99.90
9403;DHT22;4741;49.834;10.740;2022-11-15T11:10:24;14.30;99.90
9403;DHT22;4741;49.834;10.740;2022-11-15T11:13:35;14.50;99.90
9403;DHT22;4741;49.834;10.740;2022-11-15T11:29:55;15.20;99.90
9403;DHT22;4741;49.834;10.740;2022-11-15T11:45:58;15.70;99.90
9403;DHT22;4741;49.834;10.740;2022-11-15T12:07:03;15.80;99.90
9403;DHT22;4741;49.834;10.740;2022-11-15T12:10:48;16.10;99.90
9403;DHT22;4741;49.834;10.740;2022-11-15T12:13:19;15.70;99.90
9403;DHT22;4741;49.834;10.740;2022-11-15T12:15:58;15.70;99.90
9403;DHT22;4741;49.834;10.740;2022-11-15T12:18:29;15.90;99.90
9403;DHT22;4741;49.834;10.740;2022-11-15T12:20:58;16.20;99.90
9403;DHT22;4741;49.834;10.740;2022-11-15T12:23:30;15.70;99.90
9403;DHT22;4741;49.834;10.740;2022-11-15T12:26:00;15.40;99.90
9403;DHT22;4741;49.834;10.740;2022-11-15T12:28:39;14.90;99.90
9403;DHT22;4741;49.834;10.740;2022-11-15T12:31:47;14.70;99.90
9403;DHT22;4741;49.834;10.740;2022-11-15T12:36:44;14.90;99.90
9403;DHT22;4741;49.834;10.740;2022-11-15T12:39:11;14.30;99.90
9403;DHT22;4741;49.834;10.740;2022-11-15T12:41:39;14.10;99.90
9403;DHT22;4741;49.834;10.740;2022-11-15T12:44:13;14.30;99.90
9403;DHT22;4741;49.834;10.740;2022-11-15T12:47:00;13.90;99.90
9403;DHT22;4741;49.834;10.740;2022-11-15T12:59:49;13.70;99.90
9403;DHT22;4741;49.834;10.740;2022-11-15T13:02:23;13.80;99.90
9403;DHT22;4741;49.834;10.740;2022-11-15T13:04:51;13.60;99.90
9403;DHT22;4741;49.834;10.740;2022-11-15T13:17:42;13.90;99.90
9403;DHT22;4741;49.834;10.740;2022-11-15T13:30:35;14.60;99.90
9403;DHT22;4741;49.834;10.740;2022-11-15T13:33:13;15.40;99.90
9403;DHT22;4741;49.834;10.740;2022-11-15T13:35:41;16.80;99.90
9403;DHT22;4741;49.834;10.740;2022-11-15T13:38:17;17.60;99.90
9403;DHT22;4741;49.834;10.740;2022-11-15T13:40:44;18.00;99.90
9403;DHT22;4741;49.834;10.740;2022-11-15T13:46:06;18.60;99.90
9403;DHT22;4741;49.834;10.740;2022-11-15T13:48:34;18.50;99.90
9403;DHT22;4741;49.834;10.740;2022-11-15T13:51:02;17.70;99.90
9403;DHT22;4741;49.834;10.740;2022-11-15T13:53:30;17.20;99.90
9403;DHT22;4741;49.834;10.740;2022-11-15T13:55:57;17.00;99.90
9403;DHT22;4741;49.834;10.740;2022-11-15T13:58:24;17.60;99.90
9403;DHT22;4741;49.834;10.740;2022-11-15T14:00:58;17.90;99.90
9403;DHT22;4741;49.834;10.740;2022-11-15T14:03:31;18.00;99.90
9403;DHT22;4741;49.834;10.740;2022-11-15T14:06:33;17.20;99.90
9403;DHT22;4741;49.834;10.740;2022-11-15T14:09:39;16.30;99.90
9403;DHT22;4741;49.834;10.740;2022-11-15T14:12:31;15.70;99.90
9403;DHT22;4741;49.834;10.740;2022-11-15T14:18:58;14.70;99.90
9403;DHT22;4741;49.834;10.740;2022-11-15T14:21:25;14.50;99.90
9403;DHT22;4741;49.834;10.740;2022-11-15T14:23:51;14.80;99.90
9403;DHT22;4741;49.834;10.740;2022-11-15T14:26:28;16.20;99.90
9403;DHT22;4741;49.834;10.740;2022-11-15T14:28:55;17.30;99.90
9403;DHT22;4741;49.834;10.740;2022-11-15T14:31:22;19.10;99.90
9403;DHT22;4741;49.834;10.740;2022-11-15T14:33:49;19.30;99.90
9403;DHT22;4741;49.834;10.740;2022-11-15T14:36:17;18.20;99.90
9403;DHT22;4741;49.834;10.740;2022-11-15T14:38:43;17.50;99.90
9403;DHT22;4741;49.834;10.740;2022-11-15T14:43:42;16.40;99.90
9403;DHT22;4741;49.834;10.740;2022-11-15T14:46:09;16.40;99.90
9403;DHT22;4741;49.834;10.740;2022-11-15T14:48:36;15.60;99.90
9403;DHT22;4741;49.834;10.740;2022-11-15T14:51:03;15.00;99.90
9403;DHT22;4741;49.834;10.740;2022-11-15T14:53:29;14.60;99.90
9403;DHT22;4741;49.834;10.740;2022-11-15T14:55:56;14.00;99.90
9403;DHT22;4741;49.834;10.740;2022-11-15T14:58:22;13.90;99.90
9403;DHT22;4741;49.834;10.740;2022-11-15T15:00:49;13.90;99.90
9403;DHT22;4741;49.834;10.740;2022-11-15T15:03:16;14.80;99.90
9403;DHT22;4741;49.834;10.740;2022-11-15T15:05:43;13.50;99.90
9403;DHT22;4741;49.834;10.740;2022-11-15T15:08:10;13.20;99.90
9403;DHT22;4741;49.834;10.740;2022-11-15T15:10:38;13.80;99.90
9403;DHT22;4741;49.834;10.740;2022-11-15T15:15:35;12.50;99.90
9403;DHT22;4741;49.834;10.740;2022-11-15T15:18:02;12.10;99.90
9403;DHT22;4741;49.834;10.740;2022-11-15T15:22:57;12.00;99.90
9403;DHT22;4741;49.834;10.740;2022-11-15T15:25:28;12.40;99.90
9403;DHT22;4741;49.834;10.740;2022-11-15T15:32:51;11.40;99.90
9403;DHT22;4741;49.834;10.740;2022-11-15T15:35:17;11.30;99.90
9403;DHT22;4741;49.834;10.740;2022-11-15T15:37:45;11.70;99.90
9403;DHT22;4741;49.834;10.740;2022-11-15T15:40:14;11.80;99.90
9403;DHT22;4741;49.834;10.740;2022-11-15T15:42:41;11.00;99.90
9403;DHT22;4741;49.834;10.740;2022-11-15T15:45:08;10.80;99.90
9403;DHT22;4741;49.834;10.740;2022-11-15T15:47:35;10.50;99.90
9403;DHT22;4741;49.834;10.740;2022-11-15T15:50:02;10.20;99.90
9403;DHT22;4741;49.834;10.740;2022-11-15T15:52:29;10.20;99.90
9403;DHT22;4741;49.834;10.740;2022-11-15T15:54:56;10.20;99.90
9403;DHT22;4741;49.834;10.740;2022-11-15T15:59:50;9.90;99.90
9403;DHT22;4741;49.834;10.740;2022-11-15T16:02:16;9.80;99.90
9403;DHT22;4741;49.834;10.740;2022-11-15T16:04:43;10.50;99.90
9403;DHT22;4741;49.834;10.740;2022-11-15T16:07:17;9.60;99.90
9403;DHT22;4741;49.834;10.740;2022-11-15T16:09:47;9.60;99.90
9403;DHT22;4741;49.834;10.740;2022-11-15T16:12:30;10.40;99.90
9403;DHT22;4741;49.834;10.740;2022-11-15T16:14:57;9.50;99.90
9403;DHT22;4741;49.834;10.740;2022-11-15T16:17:25;9.30;99.90
9403;DHT22;4741;49.834;10.740;2022-11-15T16:19:59;9.30;99.90
9403;DHT22;4741;49.834;10.740;2022-11-15T16:22:26;9.30;99.90
9403;DHT22;4741;49.834;10.740;2022-11-15T16:24:55;9.20;99.90
9403;DHT22;4741;49.834;10.740;2022-11-15T16:27:22;9.20;99.90
9403;DHT22;4741;49.834;10.740;2022-11-15T16:29:49;9.10;99.90
9403;DHT22;4741;49.834;10.740;2022-11-15T16:32:15;9.10;99.90
9403;DHT22;4741;49.834;10.740;2022-11-15T16:34:42;9.00;99.90
9403;DHT22;4741;49.834;10.740;2022-11-15T16:37:23;9.00;99.90
9403;DHT22;4741;49.834;10.740;2022-11-15T16:39:50;9.10;99.90
9403;DHT22;4741;49.834;10.740;2022-11-15T16:42:19;9.10;99.90
9403;DHT22;4741;49.834;10.740;2022-11-15T16:44:46;9.10;99.90
9403;DHT22;4741;49.834;10.740;2022-11-15T16:47:19;9.10;99.90
9403;DHT22;4741;49.834;10.740;2022-11-15T16:49:45;9.10;99.90
9403;DHT22;4741;49.834;10.740;2022-11-15T16:52:12;9.00;99.90
9403;DHT22;4741;49.834;10.740;2022-11-15T16:54:45;9.00;99.90
9403;DHT22;4741;49.834;10.740;2022-11-15T16:57:12;9.00;99.90
9403;DHT22;4741;49.834;10.740;2022-11-15T16:59:38;8.90;99.90
9403;DHT22;4741;49.834;10.740;2022-11-15T17:02:09;8.80;99.90
9403;DHT22;4741;49.834;10.740;2022-11-15T17:04:37;8.90;99.90
9403;DHT22;4741;49.834;10.740;2022-11-15T17:07:03;8.90;99.90
9403;DHT22;4741;49.834;10.740;2022-11-15T17:09:31;8.90;99.90
9403;DHT22;4741;49.834;10.740;2022-11-15T17:12:55;9.00;99.90
9403;DHT22;4741;49.834;10.740;2022-11-15T17:15:37;9.00;99.90
9403;DHT22;4741;49.834;10.740;2022-11-15T17:18:04;9.10;99.90
9403;DHT22;4741;49.834;10.740;2022-11-15T17:20:31;9.10;99.90
9403;DHT22;4741;49.834;10.740;2022-11-15T17:23:29;9.10;99.90
9403;DHT22;4741;49.834;10.740;2022-11-15T17:26:08;9.10;99.90
9403;DHT22;4741;49.834;10.740;2022-11-15T17:29:28;9.20;99.90
9403;DHT22;4741;49.834;10.740;2022-11-15T17:32:19;9.20;99.90
9403;DHT22;4741;49.834;10.740;2022-11-15T17:34:46;9.30;99.90
9403;DHT22;4741;49.834;10.740;2022-11-15T17:37:12;9.30;99.90
9403;DHT22;4741;49.834;10.740;2022-11-15T17:39:39;9.30;99.90
9403;DHT22;4741;49.834;10.740;2022-11-15T17:42:06;9.30;99.90
9403;DHT22;4741;49.834;10.740;2022-11-15T17:44:32;9.20;99.90
9403;DHT22;4741;49.834;10.740;2022-11-15T17:46:59;9.20;99.90
9403;DHT22;4741;49.834;10.740;2022-11-15T17:49:25;9.20;99.90
9403;DHT22;4741;49.834;10.740;2022-11-15T17:52:07;9.10;99.90
9403;DHT22;4741;49.834;10.740;2022-11-15T17:54:38;9.80;99.90
9403;DHT22;4741;49.834;10.740;2022-11-15T17:57:12;9.10;99.90
9403;DHT22;4741;49.834;10.740;2022-11-15T17:59:38;9.00;99.90
9403;DHT22;4741;49.834;10.740;2022-11-15T18:02:05;9.00;99.90
9403;DHT22;4741;49.834;10.740;2022-11-15T18:04:32;9.00;99.90
9403;DHT22;4741;49.834;10.740;2022-11-15T18:06:58;8.90;99.90
9403;DHT22;4741;49.834;10.740;2022-11-15T18:09:25;9.00;99.90
9403;DHT22;4741;49.834;10.740;2022-11-15T18:11:52;9.00;99.90
9403;DHT22;4741;49.834;10.740;2022-11-15T18:14:20;9.00;99.90
9403;DHT22;4741;49.834;10.740;2022-11-15T18:16:46;9.00;99.90
9403;DHT22;4741;49.834;10.740;2022-11-15T18:19:13;9.00;99.90
